Saint-Constant, Canada
Current Conditions -  °F | °C
As of 5:00 PM on Tuesday 25 Nov 2014 (Local Time) from CYUL Reporting Station
Overcast Overcast  
Wind Chill: 33°   Ceiling: 3700
Heat Index: 43°   Visibility: 15mi
Dew Point: 30°   Wind: 25mph
Humidity: 61%   Direction: 240°WSW
Pressure: 29.88"   Gusts: 36mph
Location:  45.37°N, 73.57°W
Report Text: CYUL 252200Z 24022G31KT 15SM OVC037 06/M01 A2988 RMK SC8 SLP120
Loading
Personal Weather Stations






























Interactive Weather Map New forecast layout! Learn more

10-Day Weather Forecast

Advertisements
Track Severe Weather on mobile